sensor_id;sensor_type;location;lat;lon;timestamp;P1;durP1;ratioP1;P2;durP2;ratioP2
78072;SDS011;67281;48.770;11.440;2023-04-24T00:01:59;2.60;;;2.00;;
78072;SDS011;67281;48.770;11.440;2023-04-24T00:04:27;2.33;;;2.10;;
78072;SDS011;67281;48.770;11.440;2023-04-24T00:06:54;2.37;;;2.10;;
78072;SDS011;67281;48.770;11.440;2023-04-24T00:09:23;2.50;;;2.03;;
78072;SDS011;67281;48.770;11.440;2023-04-24T00:11:50;4.37;;;2.43;;
78072;SDS011;67281;48.770;11.440;2023-04-24T00:14:17;2.73;;;2.23;;
78072;SDS011;67281;48.770;11.440;2023-04-24T00:16:44;3.30;;;2.10;;
78072;SDS011;67281;48.770;11.440;2023-04-24T00:19:11;3.83;;;2.40;;
78072;SDS011;67281;48.770;11.440;2023-04-24T00:21:39;3.10;;;2.17;;
78072;SDS011;67281;48.770;11.440;2023-04-24T00:24:07;2.23;;;2.03;;
78072;SDS011;67281;48.770;11.440;2023-04-24T00:26:35;4.93;;;2.70;;
78072;SDS011;67281;48.770;11.440;2023-04-24T00:29:02;3.90;;;2.30;;
78072;SDS011;67281;48.770;11.440;2023-04-24T00:31:29;2.93;;;2.13;;
78072;SDS011;67281;48.770;11.440;2023-04-24T00:33:55;2.20;;;2.00;;
78072;SDS011;67281;48.770;11.440;2023-04-24T00:36:22;2.37;;;2.13;;
78072;SDS011;67281;48.770;11.440;2023-04-24T00:38:49;2.90;;;2.00;;
78072;SDS011;67281;48.770;11.440;2023-04-24T00:41:16;2.20;;;1.93;;
78072;SDS011;67281;48.770;11.440;2023-04-24T00:43:43;2.93;;;2.40;;
78072;SDS011;67281;48.770;11.440;2023-04-24T00:46:10;4.17;;;2.30;;
78072;SDS011;67281;48.770;11.440;2023-04-24T00:48:38;2.37;;;2.00;;
78072;SDS011;67281;48.770;11.440;2023-04-24T00:51:05;2.50;;;2.00;;
78072;SDS011;67281;48.770;11.440;2023-04-24T00:53:32;2.83;;;1.90;;
78072;SDS011;67281;48.770;11.440;2023-04-24T00:55:59;1.97;;;1.70;;
78072;SDS011;67281;48.770;11.440;2023-04-24T00:58:27;2.63;;;2.07;;
78072;SDS011;67281;48.770;11.440;2023-04-24T01:00:55;2.67;;;2.07;;
78072;SDS011;67281;48.770;11.440;2023-04-24T01:03:28;2.00;;;1.90;;
78072;SDS011;67281;48.770;11.440;2023-04-24T01:05:59;5.83;;;2.07;;
78072;SDS011;67281;48.770;11.440;2023-04-24T01:08:26;2.53;;;2.13;;
78072;SDS011;67281;48.770;11.440;2023-04-24T01:10:55;2.50;;;1.90;;
78072;SDS011;67281;48.770;11.440;2023-04-24T01:13:23;4.53;;;2.17;;
78072;SDS011;67281;48.770;11.440;2023-04-24T01:15:50;4.60;;;1.90;;
78072;SDS011;67281;48.770;11.440;2023-04-24T01:18:17;1.70;;;1.60;;
78072;SDS011;67281;48.770;11.440;2023-04-24T01:20:44;2.57;;;1.80;;
78072;SDS011;67281;48.770;11.440;2023-04-24T01:23:13;2.00;;;1.80;;
78072;SDS011;67281;48.770;11.440;2023-04-24T01:25:40;2.37;;;2.00;;
78072;SDS011;67281;48.770;11.440;2023-04-24T01:28:07;2.10;;;1.77;;
78072;SDS011;67281;48.770;11.440;2023-04-24T01:30:33;2.10;;;1.77;;
78072;SDS011;67281;48.770;11.440;2023-04-24T01:33:00;1.80;;;1.70;;
78072;SDS011;67281;48.770;11.440;2023-04-24T01:35:27;1.80;;;1.47;;
78072;SDS011;67281;48.770;11.440;2023-04-24T01:37:54;2.20;;;1.70;;
78072;SDS011;67281;48.770;11.440;2023-04-24T01:40:21;1.60;;;1.50;;
78072;SDS011;67281;48.770;11.440;2023-04-24T01:42:48;4.73;;;1.73;;
78072;SDS011;67281;48.770;11.440;2023-04-24T01:45:14;1.83;;;1.30;;
78072;SDS011;67281;48.770;11.440;2023-04-24T01:47:41;1.97;;;1.63;;
78072;SDS011;67281;48.770;11.440;2023-04-24T01:50:08;2.40;;;1.70;;
78072;SDS011;67281;48.770;11.440;2023-04-24T01:52:35;1.83;;;1.47;;
78072;SDS011;67281;48.770;11.440;2023-04-24T01:55:03;1.70;;;1.60;;
78072;SDS011;67281;48.770;11.440;2023-04-24T01:57:31;1.57;;;1.47;;
78072;SDS011;67281;48.770;11.440;2023-04-24T01:59:58;1.77;;;1.57;;
78072;SDS011;67281;48.770;11.440;2023-04-24T02:02:25;2.00;;;1.70;;
78072;SDS011;67281;48.770;11.440;2023-04-24T02:04:54;2.03;;;1.50;;
78072;SDS011;67281;48.770;11.440;2023-04-24T02:07:21;1.60;;;1.50;;
78072;SDS011;67281;48.770;11.440;2023-04-24T02:09:48;2.10;;;1.40;;
78072;SDS011;67281;48.770;11.440;2023-04-24T02:12:15;1.50;;;1.40;;
78072;SDS011;67281;48.770;11.440;2023-04-24T02:14:43;1.87;;;1.57;;
78072;SDS011;67281;48.770;11.440;2023-04-24T02:17:10;1.83;;;1.40;;
78072;SDS011;67281;48.770;11.440;2023-04-24T02:19:38;2.33;;;1.60;;
78072;SDS011;67281;48.770;11.440;2023-04-24T02:22:05;2.30;;;1.70;;
78072;SDS011;67281;48.770;11.440;2023-04-24T02:24:32;1.60;;;1.50;;
78072;SDS011;67281;48.770;11.440;2023-04-24T02:26:59;1.70;;;1.47;;
78072;SDS011;67281;48.770;11.440;2023-04-24T02:29:26;2.10;;;1.37;;
78072;SDS011;67281;48.770;11.440;2023-04-24T02:31:53;1.90;;;1.70;;
78072;SDS011;67281;48.770;11.440;2023-04-24T02:34:20;1.77;;;1.67;;
78072;SDS011;67281;48.770;11.440;2023-04-24T02:36:46;1.50;;;1.40;;
78072;SDS011;67281;48.770;11.440;2023-04-24T02:39:13;2.10;;;1.57;;
78072;SDS011;67281;48.770;11.440;2023-04-24T02:41:40;1.93;;;1.40;;
78072;SDS011;67281;48.770;11.440;2023-04-24T02:44:07;1.87;;;1.33;;
78072;SDS011;67281;48.770;11.440;2023-04-24T02:46:34;3.03;;;1.70;;
78072;SDS011;67281;48.770;11.440;2023-04-24T02:49:01;3.23;;;1.40;;
78072;SDS011;67281;48.770;11.440;2023-04-24T02:51:27;3.37;;;1.33;;
78072;SDS011;67281;48.770;11.440;2023-04-24T02:53:54;2.53;;;1.50;;
78072;SDS011;67281;48.770;11.440;2023-04-24T02:56:21;2.20;;;1.60;;
78072;SDS011;67281;48.770;11.440;2023-04-24T02:58:48;2.53;;;1.50;;
78072;SDS011;67281;48.770;11.440;2023-04-24T03:01:15;1.60;;;1.30;;
78072;SDS011;67281;48.770;11.440;2023-04-24T03:03:42;1.40;;;1.30;;
78072;SDS011;67281;48.770;11.440;2023-04-24T03:06:09;3.43;;;1.27;;
78072;SDS011;67281;48.770;11.440;2023-04-24T03:08:36;1.60;;;1.50;;
78072;SDS011;67281;48.770;11.440;2023-04-24T03:11:03;1.70;;;1.30;;
78072;SDS011;67281;48.770;11.440;2023-04-24T03:13:29;1.77;;;1.30;;
78072;SDS011;67281;48.770;11.440;2023-04-24T03:15:56;1.50;;;1.40;;
78072;SDS011;67281;48.770;11.440;2023-04-24T03:18:23;1.77;;;1.40;;
78072;SDS011;67281;48.770;11.440;2023-04-24T03:20:50;1.40;;;1.30;;
78072;SDS011;67281;48.770;11.440;2023-04-24T03:23:17;1.53;;;1.07;;
78072;SDS011;67281;48.770;11.440;2023-04-24T03:25:43;1.97;;;1.30;;
78072;SDS011;67281;48.770;11.440;2023-04-24T03:28:10;1.63;;;1.30;;
78072;SDS011;67281;48.770;11.440;2023-04-24T03:30:37;2.63;;;1.40;;
78072;SDS011;67281;48.770;11.440;2023-04-24T03:33:04;3.63;;;1.57;;
78072;SDS011;67281;48.770;11.440;2023-04-24T03:35:31;2.07;;;1.23;;
78072;SDS011;67281;48.770;11.440;2023-04-24T03:37:57;2.00;;;1.57;;
78072;SDS011;67281;48.770;11.440;2023-04-24T03:40:24;1.50;;;1.40;;
78072;SDS011;67281;48.770;11.440;2023-04-24T03:42:51;1.70;;;1.60;;
78072;SDS011;67281;48.770;11.440;2023-04-24T03:45:18;1.90;;;1.60;;
78072;SDS011;67281;48.770;11.440;2023-04-24T03:47:44;1.57;;;1.47;;
78072;SDS011;67281;48.770;11.440;2023-04-24T03:50:11;2.80;;;1.43;;
78072;SDS011;67281;48.770;11.440;2023-04-24T03:52:38;1.90;;;1.30;;
78072;SDS011;67281;48.770;11.440;2023-04-24T03:55:05;1.70;;;1.50;;
78072;SDS011;67281;48.770;11.440;2023-04-24T03:57:32;3.67;;;1.23;;
78072;SDS011;67281;48.770;11.440;2023-04-24T03:59:59;2.10;;;1.53;;
78072;SDS011;67281;48.770;11.440;2023-04-24T04:02:26;2.00;;;1.60;;
78072;SDS011;67281;48.770;11.440;2023-04-24T04:04:53;2.47;;;1.50;;
78072;SDS011;67281;48.770;11.440;2023-04-24T04:07:20;2.77;;;1.43;;
78072;SDS011;67281;48.770;11.440;2023-04-24T04:09:47;1.43;;;1.33;;
78072;SDS011;67281;48.770;11.440;2023-04-24T04:12:13;1.13;;;1.13;;
78072;SDS011;67281;48.770;11.440;2023-04-24T04:14:40;1.90;;;1.77;;
78072;SDS011;67281;48.770;11.440;2023-04-24T04:17:07;1.97;;;1.47;;
78072;SDS011;67281;48.770;11.440;2023-04-24T04:19:34;2.73;;;1.33;;
78072;SDS011;67281;48.770;11.440;2023-04-24T04:22:01;1.73;;;1.43;;
78072;SDS011;67281;48.770;11.440;2023-04-24T04:24:27;2.83;;;1.83;;
78072;SDS011;67281;48.770;11.440;2023-04-24T04:26:54;2.27;;;1.40;;
78072;SDS011;67281;48.770;11.440;2023-04-24T04:29:24;1.80;;;1.50;;
78072;SDS011;67281;48.770;11.440;2023-04-24T04:31:52;3.40;;;2.80;;
78072;SDS011;67281;48.770;11.440;2023-04-24T04:34:19;1.43;;;1.33;;
78072;SDS011;67281;48.770;11.440;2023-04-24T04:36:46;2.37;;;1.43;;
78072;SDS011;67281;48.770;11.440;2023-04-24T04:39:12;1.20;;;1.10;;
78072;SDS011;67281;48.770;11.440;2023-04-24T04:41:41;1.83;;;1.40;;
78072;SDS011;67281;48.770;11.440;2023-04-24T04:44:08;2.23;;;1.50;;
78072;SDS011;67281;48.770;11.440;2023-04-24T04:46:36;1.50;;;1.40;;
78072;SDS011;67281;48.770;11.440;2023-04-24T04:49:03;1.53;;;1.43;;
78072;SDS011;67281;48.770;11.440;2023-04-24T04:51:30;2.87;;;1.50;;
78072;SDS011;67281;48.770;11.440;2023-04-24T04:53:57;1.50;;;1.40;;
78072;SDS011;67281;48.770;11.440;2023-04-24T04:56:24;2.40;;;1.30;;
78072;SDS011;67281;48.770;11.440;2023-04-24T04:58:51;1.80;;;1.40;;
78072;SDS011;67281;48.770;11.440;2023-04-24T05:01:18;2.17;;;1.83;;
78072;SDS011;67281;48.770;11.440;2023-04-24T05:03:47;1.20;;;1.17;;
78072;SDS011;67281;48.770;11.440;2023-04-24T05:06:15;1.70;;;1.60;;
78072;SDS011;67281;48.770;11.440;2023-04-24T05:08:42;1.60;;;1.50;;
78072;SDS011;67281;48.770;11.440;2023-04-24T05:11:09;1.87;;;1.40;;
78072;SDS011;67281;48.770;11.440;2023-04-24T05:13:36;2.33;;;1.40;;
78072;SDS011;67281;48.770;11.440;2023-04-24T05:16:06;2.40;;;1.50;;
78072;SDS011;67281;48.770;11.440;2023-04-24T05:18:33;1.40;;;1.23;;
78072;SDS011;67281;48.770;11.440;2023-04-24T05:21:00;1.63;;;1.50;;
78072;SDS011;67281;48.770;11.440;2023-04-24T05:23:27;2.60;;;1.30;;
78072;SDS011;67281;48.770;11.440;2023-04-24T05:25:54;2.97;;;1.77;;
78072;SDS011;67281;48.770;11.440;2023-04-24T05:28:21;3.47;;;1.60;;
78072;SDS011;67281;48.770;11.440;2023-04-24T05:30:48;1.80;;;1.37;;
78072;SDS011;67281;48.770;11.440;2023-04-24T05:33:15;1.60;;;1.50;;
78072;SDS011;67281;48.770;11.440;2023-04-24T05:35:41;1.90;;;1.20;;
78072;SDS011;67281;48.770;11.440;2023-04-24T05:38:13;2.90;;;1.50;;
78072;SDS011;67281;48.770;11.440;2023-04-24T05:40:41;1.83;;;1.30;;
78072;SDS011;67281;48.770;11.440;2023-04-24T05:43:08;1.50;;;1.30;;
78072;SDS011;67281;48.770;11.440;2023-04-24T05:45:34;1.43;;;1.33;;
78072;SDS011;67281;48.770;11.440;2023-04-24T05:48:03;1.53;;;1.30;;
78072;SDS011;67281;48.770;11.440;2023-04-24T05:50:30;1.73;;;1.40;;
78072;SDS011;67281;48.770;11.440;2023-04-24T05:52:57;2.97;;;1.40;;
78072;SDS011;67281;48.770;11.440;2023-04-24T05:55:25;2.40;;;1.60;;
78072;SDS011;67281;48.770;11.440;2023-04-24T05:57:52;2.83;;;1.60;;
78072;SDS011;67281;48.770;11.440;2023-04-24T06:00:19;1.60;;;1.50;;
78072;SDS011;67281;48.770;11.440;2023-04-24T06:02:46;4.20;;;1.37;;
78072;SDS011;67281;48.770;11.440;2023-04-24T06:05:13;1.30;;;1.20;;
78072;SDS011;67281;48.770;11.440;2023-04-24T06:07:41;1.90;;;1.40;;
78072;SDS011;67281;48.770;11.440;2023-04-24T06:10:08;1.57;;;1.47;;
78072;SDS011;67281;48.770;11.440;2023-04-24T06:12:36;2.83;;;1.50;;
78072;SDS011;67281;48.770;11.440;2023-04-24T06:15:03;1.37;;;1.27;;
78072;SDS011;67281;48.770;11.440;2023-04-24T06:17:30;1.40;;;1.30;;
78072;SDS011;67281;48.770;11.440;2023-04-24T06:19:57;1.63;;;1.50;;
78072;SDS011;67281;48.770;11.440;2023-04-24T06:22:24;2.03;;;1.50;;
78072;SDS011;67281;48.770;11.440;2023-04-24T06:24:50;3.00;;;1.30;;
78072;SDS011;67281;48.770;11.440;2023-04-24T06:27:19;1.77;;;1.50;;
78072;SDS011;67281;48.770;11.440;2023-04-24T06:29:45;2.20;;;1.70;;
78072;SDS011;67281;48.770;11.440;2023-04-24T06:32:15;2.10;;;1.57;;
78072;SDS011;67281;48.770;11.440;2023-04-24T06:34:42;1.60;;;1.40;;
78072;SDS011;67281;48.770;11.440;2023-04-24T06:37:09;2.13;;;1.20;;
78072;SDS011;67281;48.770;11.440;2023-04-24T06:39:36;1.73;;;1.50;;
78072;SDS011;67281;48.770;11.440;2023-04-24T06:42:03;5.00;;;1.43;;
78072;SDS011;67281;48.770;11.440;2023-04-24T06:44:29;1.93;;;1.40;;
78072;SDS011;67281;48.770;11.440;2023-04-24T06:46:56;2.20;;;1.30;;
78072;SDS011;67281;48.770;11.440;2023-04-24T06:49:23;2.93;;;1.40;;
78072;SDS011;67281;48.770;11.440;2023-04-24T06:51:50;1.43;;;1.33;;
78072;SDS011;67281;48.770;11.440;2023-04-24T06:54:16;2.63;;;1.50;;
78072;SDS011;67281;48.770;11.440;2023-04-24T06:56:43;1.47;;;1.37;;
78072;SDS011;67281;48.770;11.440;2023-04-24T06:59:18;1.43;;;1.30;;
78072;SDS011;67281;48.770;11.440;2023-04-24T07:01:45;3.63;;;1.40;;
78072;SDS011;67281;48.770;11.440;2023-04-24T07:04:12;2.07;;;1.10;;
78072;SDS011;67281;48.770;11.440;2023-04-24T07:06:45;1.50;;;1.20;;
78072;SDS011;67281;48.770;11.440;2023-04-24T07:09:15;1.27;;;1.17;;
78072;SDS011;67281;48.770;11.440;2023-04-24T07:11:45;1.37;;;1.10;;
78072;SDS011;67281;48.770;11.440;2023-04-24T07:14:12;2.07;;;1.30;;
78072;SDS011;67281;48.770;11.440;2023-04-24T07:16:42;1.23;;;1.00;;
78072;SDS011;67281;48.770;11.440;2023-04-24T07:19:09;1.63;;;1.27;;
78072;SDS011;67281;48.770;11.440;2023-04-24T07:21:39;2.17;;;1.10;;
78072;SDS011;67281;48.770;11.440;2023-04-24T07:24:06;2.07;;;1.20;;
78072;SDS011;67281;48.770;11.440;2023-04-24T07:26:37;1.20;;;1.00;;
78072;SDS011;67281;48.770;11.440;2023-04-24T07:29:06;1.67;;;1.00;;
78072;SDS011;67281;48.770;11.440;2023-04-24T07:31:33;5.57;;;1.17;;
78072;SDS011;67281;48.770;11.440;2023-04-24T07:34:01;2.27;;;1.40;;
78072;SDS011;67281;48.770;11.440;2023-04-24T07:36:28;1.40;;;1.30;;
78072;SDS011;67281;48.770;11.440;2023-04-24T07:38:55;1.40;;;1.30;;
78072;SDS011;67281;48.770;11.440;2023-04-24T07:41:23;1.80;;;1.30;;
78072;SDS011;67281;48.770;11.440;2023-04-24T07:43:51;1.50;;;1.17;;
78072;SDS011;67281;48.770;11.440;2023-04-24T07:46:19;1.73;;;1.13;;
78072;SDS011;67281;48.770;11.440;2023-04-24T07:48:46;1.53;;;1.10;;
78072;SDS011;67281;48.770;11.440;2023-04-24T07:51:31;1.30;;;1.10;;
78072;SDS011;67281;48.770;11.440;2023-04-24T07:53:59;3.83;;;1.40;;
78072;SDS011;67281;48.770;11.440;2023-04-24T07:56:25;1.90;;;1.70;;
78072;SDS011;67281;48.770;11.440;2023-04-24T07:58:53;1.27;;;1.17;;
78072;SDS011;67281;48.770;11.440;2023-04-24T08:01:20;2.70;;;1.40;;
78072;SDS011;67281;48.770;11.440;2023-04-24T08:03:47;1.20;;;1.13;;
78072;SDS011;67281;48.770;11.440;2023-04-24T08:06:14;1.40;;;1.30;;
78072;SDS011;67281;48.770;11.440;2023-04-24T08:08:41;1.40;;;1.30;;
78072;SDS011;67281;48.770;11.440;2023-04-24T08:11:08;1.70;;;1.60;;
78072;SDS011;67281;48.770;11.440;2023-04-24T08:13:35;1.40;;;1.30;;
78072;SDS011;67281;48.770;11.440;2023-04-24T08:16:02;2.27;;;1.57;;
78072;SDS011;67281;48.770;11.440;2023-04-24T08:18:29;3.20;;;1.60;;
78072;SDS011;67281;48.770;11.440;2023-04-24T08:20:56;2.33;;;1.63;;
78072;SDS011;67281;48.770;11.440;2023-04-24T08:23:27;2.17;;;1.40;;
78072;SDS011;67281;48.770;11.440;2023-04-24T08:25:59;1.60;;;1.50;;
78072;SDS011;67281;48.770;11.440;2023-04-24T08:28:26;3.20;;;1.20;;
78072;SDS011;67281;48.770;11.440;2023-04-24T08:30:52;1.10;;;1.00;;
78072;SDS011;67281;48.770;11.440;2023-04-24T08:33:22;1.40;;;1.30;;
78072;SDS011;67281;48.770;11.440;2023-04-24T08:35:49;5.43;;;1.50;;
78072;SDS011;67281;48.770;11.440;2023-04-24T08:38:16;2.30;;;1.20;;
78072;SDS011;67281;48.770;11.440;2023-04-24T08:40:43;1.40;;;1.30;;
78072;SDS011;67281;48.770;11.440;2023-04-24T08:43:12;1.77;;;1.40;;
78072;SDS011;67281;48.770;11.440;2023-04-24T08:45:40;1.53;;;1.43;;
78072;SDS011;67281;48.770;11.440;2023-04-24T08:48:07;1.50;;;1.40;;
78072;SDS011;67281;48.770;11.440;2023-04-24T08:50:55;1.30;;;1.20;;
78072;SDS011;67281;48.770;11.440;2023-04-24T08:53:23;1.43;;;1.33;;
78072;SDS011;67281;48.770;11.440;2023-04-24T08:55:51;1.63;;;1.10;;
78072;SDS011;67281;48.770;11.440;2023-04-24T08:58:22;2.80;;;1.40;;
78072;SDS011;67281;48.770;11.440;2023-04-24T09:00:51;2.17;;;1.43;;
78072;SDS011;67281;48.770;11.440;2023-04-24T09:03:21;1.37;;;1.27;;
78072;SDS011;67281;48.770;11.440;2023-04-24T09:05:49;2.00;;;1.73;;
78072;SDS011;67281;48.770;11.440;2023-04-24T09:08:19;1.57;;;1.43;;
78072;SDS011;67281;48.770;11.440;2023-04-24T09:10:49;2.07;;;1.87;;
78072;SDS011;67281;48.770;11.440;2023-04-24T09:13:17;2.07;;;1.23;;
78072;SDS011;67281;48.770;11.440;2023-04-24T09:15:45;2.50;;;1.50;;
78072;SDS011;67281;48.770;11.440;2023-04-24T09:18:12;1.93;;;1.70;;
78072;SDS011;67281;48.770;11.440;2023-04-24T09:20:58;2.10;;;1.70;;
78072;SDS011;67281;48.770;11.440;2023-04-24T09:23:26;1.67;;;1.30;;
78072;SDS011;67281;48.770;11.440;2023-04-24T09:25:55;2.40;;;1.30;;
78072;SDS011;67281;48.770;11.440;2023-04-24T09:28:31;1.90;;;1.40;;
78072;SDS011;67281;48.770;11.440;2023-04-24T09:31:09;1.67;;;1.57;;
78072;SDS011;67281;48.770;11.440;2023-04-24T09:33:39;1.70;;;1.60;;
78072;SDS011;67281;48.770;11.440;2023-04-24T09:36:06;1.73;;;1.63;;
78072;SDS011;67281;48.770;11.440;2023-04-24T09:38:36;2.87;;;1.40;;
78072;SDS011;67281;48.770;11.440;2023-04-24T09:41:05;1.93;;;1.47;;
78072;SDS011;67281;48.770;11.440;2023-04-24T09:43:34;3.37;;;1.67;;
78072;SDS011;67281;48.770;11.440;2023-04-24T09:46:08;2.17;;;1.70;;
78072;SDS011;67281;48.770;11.440;2023-04-24T09:48:36;3.00;;;1.60;;
78072;SDS011;67281;48.770;11.440;2023-04-24T09:51:04;2.30;;;1.90;;
78072;SDS011;67281;48.770;11.440;2023-04-24T09:53:37;2.50;;;2.03;;
78072;SDS011;67281;48.770;11.440;2023-04-24T09:56:07;1.93;;;1.77;;
78072;SDS011;67281;48.770;11.440;2023-04-24T09:58:36;2.83;;;1.63;;
78072;SDS011;67281;48.770;11.440;2023-04-24T10:01:03;3.00;;;1.90;;
78072;SDS011;67281;48.770;11.440;2023-04-24T10:03:30;1.70;;;1.60;;
78072;SDS011;67281;48.770;11.440;2023-04-24T10:05:59;1.93;;;1.77;;
78072;SDS011;67281;48.770;11.440;2023-04-24T10:08:33;2.20;;;1.70;;
78072;SDS011;67281;48.770;11.440;2023-04-24T10:11:01;2.33;;;1.57;;
78072;SDS011;67281;48.770;11.440;2023-04-24T10:13:28;3.50;;;1.90;;
78072;SDS011;67281;48.770;11.440;2023-04-24T10:15:55;2.10;;;1.50;;
78072;SDS011;67281;48.770;11.440;2023-04-24T10:18:23;1.40;;;1.30;;
78072;SDS011;67281;48.770;11.440;2023-04-24T10:20:51;1.70;;;1.60;;
78072;SDS011;67281;48.770;11.440;2023-04-24T10:23:22;2.07;;;1.50;;
78072;SDS011;67281;48.770;11.440;2023-04-24T10:25:51;2.13;;;1.80;;
78072;SDS011;67281;48.770;11.440;2023-04-24T10:28:19;2.80;;;1.97;;
78072;SDS011;67281;48.770;11.440;2023-04-24T10:30:46;1.50;;;1.40;;
78072;SDS011;67281;48.770;11.440;2023-04-24T10:33:14;2.23;;;1.37;;
78072;SDS011;67281;48.770;11.440;2023-04-24T10:35:42;2.43;;;1.33;;
78072;SDS011;67281;48.770;11.440;2023-04-24T10:38:13;4.00;;;1.37;;
78072;SDS011;67281;48.770;11.440;2023-04-24T10:44:05;2.13;;;1.90;;
78072;SDS011;67281;48.770;11.440;2023-04-24T10:46:33;1.20;;;1.10;;
78072;SDS011;67281;48.770;11.440;2023-04-24T10:49:03;1.33;;;1.03;;
78072;SDS011;67281;48.770;11.440;2023-04-24T10:51:46;1.13;;;1.03;;
78072;SDS011;67281;48.770;11.440;2023-04-24T10:59:49;1.67;;;1.40;;
78072;SDS011;67281;48.770;11.440;2023-04-24T11:02:18;1.67;;;1.10;;
78072;SDS011;67281;48.770;11.440;2023-04-24T11:05:04;1.10;;;1.10;;
78072;SDS011;67281;48.770;11.440;2023-04-24T11:10:44;1.10;;;1.00;;
78072;SDS011;67281;48.770;11.440;2023-04-24T11:13:15;2.67;;;1.20;;
78072;SDS011;67281;48.770;11.440;2023-04-24T11:15:43;1.00;;;1.00;;
78072;SDS011;67281;48.770;11.440;2023-04-24T11:18:14;0.90;;;0.90;;
78072;SDS011;67281;48.770;11.440;2023-04-24T11:20:42;1.67;;;1.30;;
78072;SDS011;67281;48.770;11.440;2023-04-24T11:23:11;1.40;;;1.30;;
78072;SDS011;67281;48.770;11.440;2023-04-24T11:25:39;1.50;;;1.40;;
78072;SDS011;67281;48.770;11.440;2023-04-24T11:28:06;1.30;;;1.17;;
78072;SDS011;67281;48.770;11.440;2023-04-24T11:30:33;1.40;;;1.30;;
78072;SDS011;67281;48.770;11.440;2023-04-24T11:33:04;1.83;;;1.47;;
78072;SDS011;67281;48.770;11.440;2023-04-24T11:35:35;2.13;;;1.30;;
78072;SDS011;67281;48.770;11.440;2023-04-24T11:38:05;1.30;;;1.20;;
78072;SDS011;67281;48.770;11.440;2023-04-24T11:40:49;2.03;;;1.70;;
78072;SDS011;67281;48.770;11.440;2023-04-24T11:43:16;4.20;;;1.13;;
78072;SDS011;67281;48.770;11.440;2023-04-24T11:45:48;2.10;;;1.30;;
78072;SDS011;67281;48.770;11.440;2023-04-24T11:48:19;1.40;;;1.30;;
78072;SDS011;67281;48.770;11.440;2023-04-24T11:50:48;2.03;;;1.53;;
78072;SDS011;67281;48.770;11.440;2023-04-24T11:53:15;1.30;;;1.20;;
78072;SDS011;67281;48.770;11.440;2023-04-24T11:55:42;2.30;;;1.27;;
78072;SDS011;67281;48.770;11.440;2023-04-24T11:58:09;1.07;;;1.00;;
78072;SDS011;67281;48.770;11.440;2023-04-24T12:00:35;0.80;;;0.80;;
78072;SDS011;67281;48.770;11.440;2023-04-24T12:03:03;1.00;;;1.00;;
78072;SDS011;67281;48.770;11.440;2023-04-24T12:05:33;1.20;;;1.10;;
78072;SDS011;67281;48.770;11.440;2023-04-24T12:08:01;1.10;;;1.00;;
78072;SDS011;67281;48.770;11.440;2023-04-24T12:10:33;1.50;;;1.40;;
78072;SDS011;67281;48.770;11.440;2023-04-24T12:13:01;1.40;;;1.30;;
78072;SDS011;67281;48.770;11.440;2023-04-24T12:15:28;1.20;;;1.10;;
78072;SDS011;67281;48.770;11.440;2023-04-24T12:17:55;3.07;;;1.27;;
78072;SDS011;67281;48.770;11.440;2023-04-24T12:20:32;2.70;;;1.20;;
78072;SDS011;67281;48.770;11.440;2023-04-24T12:22:59;2.80;;;1.83;;
78072;SDS011;67281;48.770;11.440;2023-04-24T12:25:28;1.30;;;1.17;;
78072;SDS011;67281;48.770;11.440;2023-04-24T12:30:29;2.60;;;1.23;;
78072;SDS011;67281;48.770;11.440;2023-04-24T12:32:58;1.30;;;1.20;;
78072;SDS011;67281;48.770;11.440;2023-04-24T12:35:27;2.03;;;1.47;;
78072;SDS011;67281;48.770;11.440;2023-04-24T12:37:56;1.50;;;1.20;;
78072;SDS011;67281;48.770;11.440;2023-04-24T12:40:32;1.57;;;1.20;;
78072;SDS011;67281;48.770;11.440;2023-04-24T12:43:02;4.63;;;1.10;;
78072;SDS011;67281;48.770;11.440;2023-04-24T12:45:39;2.33;;;1.57;;
78072;SDS011;67281;48.770;11.440;2023-04-24T12:48:06;2.37;;;1.40;;
78072;SDS011;67281;48.770;11.440;2023-04-24T12:50:33;2.50;;;1.80;;
78072;SDS011;67281;48.770;11.440;2023-04-24T12:53:00;1.00;;;0.93;;
78072;SDS011;67281;48.770;11.440;2023-04-24T12:55:26;1.33;;;1.10;;
78072;SDS011;67281;48.770;11.440;2023-04-24T12:57:53;1.33;;;1.20;;
78072;SDS011;67281;48.770;11.440;2023-04-24T13:00:21;2.03;;;1.40;;
78072;SDS011;67281;48.770;11.440;2023-04-24T13:02:48;1.23;;;1.13;;
78072;SDS011;67281;48.770;11.440;2023-04-24T13:05:16;3.87;;;1.20;;
78072;SDS011;67281;48.770;11.440;2023-04-24T13:07:42;2.53;;;1.30;;
78072;SDS011;67281;48.770;11.440;2023-04-24T13:10:09;1.50;;;1.13;;
78072;SDS011;67281;48.770;11.440;2023-04-24T13:12:36;2.93;;;1.27;;
78072;SDS011;67281;48.770;11.440;2023-04-24T13:15:04;2.60;;;1.17;;
78072;SDS011;67281;48.770;11.440;2023-04-24T13:17:31;3.17;;;1.37;;
78072;SDS011;67281;48.770;11.440;2023-04-24T13:19:58;2.13;;;1.30;;
78072;SDS011;67281;48.770;11.440;2023-04-24T13:22:25;4.27;;;1.20;;
78072;SDS011;67281;48.770;11.440;2023-04-24T13:24:52;3.13;;;2.27;;
78072;SDS011;67281;48.770;11.440;2023-04-24T13:27:19;1.07;;;1.00;;
78072;SDS011;67281;48.770;11.440;2023-04-24T13:29:46;1.50;;;1.13;;
78072;SDS011;67281;48.770;11.440;2023-04-24T13:32:13;1.17;;;1.07;;
78072;SDS011;67281;48.770;11.440;2023-04-24T13:34:40;2.47;;;1.40;;
78072;SDS011;67281;48.770;11.440;2023-04-24T13:37:07;1.67;;;1.20;;
78072;SDS011;67281;48.770;11.440;2023-04-24T13:39:34;2.97;;;1.30;;
78072;SDS011;67281;48.770;11.440;2023-04-24T13:42:02;1.10;;;1.00;;
78072;SDS011;67281;48.770;11.440;2023-04-24T13:44:30;1.30;;;1.20;;
78072;SDS011;67281;48.770;11.440;2023-04-24T13:46:57;0.90;;;0.80;;
78072;SDS011;67281;48.770;11.440;2023-04-24T13:49:25;1.13;;;1.03;;
78072;SDS011;67281;48.770;11.440;2023-04-24T13:51:53;1.60;;;1.37;;
78072;SDS011;67281;48.770;11.440;2023-04-24T13:54:21;1.73;;;1.03;;
78072;SDS011;67281;48.770;11.440;2023-04-24T13:56:50;1.30;;;1.20;;
78072;SDS011;67281;48.770;11.440;2023-04-24T13:59:19;1.13;;;1.03;;
78072;SDS011;67281;48.770;11.440;2023-04-24T14:01:47;1.93;;;1.30;;
78072;SDS011;67281;48.770;11.440;2023-04-24T14:04:14;1.10;;;1.00;;
78072;SDS011;67281;48.770;11.440;2023-04-24T14:06:41;2.17;;;1.30;;
78072;SDS011;67281;48.770;11.440;2023-04-24T14:09:10;1.33;;;0.83;;
78072;SDS011;67281;48.770;11.440;2023-04-24T14:11:37;1.70;;;1.20;;
78072;SDS011;67281;48.770;11.440;2023-04-24T14:14:04;1.30;;;1.13;;
78072;SDS011;67281;48.770;11.440;2023-04-24T14:16:31;1.23;;;1.13;;
78072;SDS011;67281;48.770;11.440;2023-04-24T14:18:58;1.37;;;1.20;;
78072;SDS011;67281;48.770;11.440;2023-04-24T14:21:24;3.70;;;1.20;;
78072;SDS011;67281;48.770;11.440;2023-04-24T14:23:51;1.67;;;1.30;;
78072;SDS011;67281;48.770;11.440;2023-04-24T14:26:19;2.57;;;1.20;;
78072;SDS011;67281;48.770;11.440;2023-04-24T14:28:46;1.37;;;1.20;;
78072;SDS011;67281;48.770;11.440;2023-04-24T14:31:13;3.20;;;1.20;;
78072;SDS011;67281;48.770;11.440;2023-04-24T14:33:40;2.63;;;1.27;;
78072;SDS011;67281;48.770;11.440;2023-04-24T14:36:06;1.77;;;1.40;;
78072;SDS011;67281;48.770;11.440;2023-04-24T14:38:33;1.27;;;1.10;;
78072;SDS011;67281;48.770;11.440;2023-04-24T14:41:00;1.20;;;1.10;;
78072;SDS011;67281;48.770;11.440;2023-04-24T14:43:30;1.57;;;1.20;;
78072;SDS011;67281;48.770;11.440;2023-04-24T14:45:57;2.97;;;1.17;;
78072;SDS011;67281;48.770;11.440;2023-04-24T14:48:24;1.27;;;1.10;;
78072;SDS011;67281;48.770;11.440;2023-04-24T14:50:51;1.30;;;1.20;;
78072;SDS011;67281;48.770;11.440;2023-04-24T14:53:18;1.40;;;0.97;;